Columbus Metropolitan Airport


Codes: KCSG/CSG
Name: Columbus Metropolitan Airport
City: Columbus
Country: United States
Elevation: 397 ft.
Wikipedia:

Photos at Columbus Metropolitan Airport


   Photos courtesy of SpottingLog. You can add your own sightings and photos by signing up for a free trial today.



No photos found.

Weather at Columbus Metropolitan Airport


Time (UTC)DescriptionTempratureWindCloud coverageVisibilityPressureHumidity
16-Jun-2024 09:00Clear Sky24°C2 mph, SE0%10000m1016hPa71%
16-Jun-2024 12:00Clear Sky24°C2 mph, E0%10000m1016hPa69%
16-Jun-2024 15:00Clear Sky29°C7 mph, SE0%10000m1017hPa53%
16-Jun-2024 18:00Clear Sky36°C11 mph, SE0%10000m1016hPa31%
16-Jun-2024 21:00Broken Clouds35°C11 mph, SE71%10000m1016hPa29%
17-Jun-2024 00:00Overcast Clouds31°C4 mph, SE86%10000m1015hPa44%
17-Jun-2024 03:00Overcast Clouds27°C2 mph, NE99%10000m1017hPa67%
17-Jun-2024 06:00Overcast Clouds25°C4 mph, SE99%10000m1018hPa70%
17-Jun-2024 09:00Overcast Clouds24°C4 mph, SE100%10000m1017hPa79%
17-Jun-2024 12:00Overcast Clouds25°C7 mph, E96%10000m1019hPa73%
17-Jun-2024 15:00Overcast Clouds30°C9 mph, SE99%10000m1019hPa50%
17-Jun-2024 18:00Overcast Clouds34°C11 mph, SE99%10000m1018hPa38%
17-Jun-2024 21:00Overcast Clouds31°C7 mph, SE100%10000m1017hPa47%
18-Jun-2024 00:00Overcast Clouds30°C4 mph, NE100%10000m1016hPa53%
18-Jun-2024 03:00Overcast Clouds29°C9 mph, SE100%10000m1018hPa44%
18-Jun-2024 06:00Overcast Clouds24°C4 mph, SE100%10000m1019hPa55%
18-Jun-2024 09:00Overcast Clouds22°C7 mph, E100%10000m1019hPa80%
18-Jun-2024 12:00Overcast Clouds22°C9 mph, E100%10000m1020hPa82%
18-Jun-2024 15:00Overcast Clouds28°C11 mph, E100%10000m1019hPa59%
18-Jun-2024 18:00Light Rain30°C13 mph, E100%10000m1018hPa50%
18-Jun-2024 21:00Overcast Clouds33°C13 mph, E100%10000m1017hPa31%
19-Jun-2024 00:00Overcast Clouds29°C7 mph, NE100%10000m1017hPa46%
19-Jun-2024 03:00Overcast Clouds27°C11 mph, E100%10000m1019hPa61%
19-Jun-2024 06:00Overcast Clouds25°C11 mph, E100%10000m1019hPa73%
19-Jun-2024 09:00Overcast Clouds22°C9 mph, E100%10000m1020hPa75%
19-Jun-2024 12:00Overcast Clouds22°C11 mph, E100%10000m1021hPa75%
19-Jun-2024 15:00Overcast Clouds26°C11 mph, E100%10000m1022hPa58%
19-Jun-2024 18:00Overcast Clouds28°C16 mph, E100%10000m1021hPa52%
19-Jun-2024 21:00Overcast Clouds29°C11 mph, E100%10000m1019hPa48%
20-Jun-2024 00:00Overcast Clouds29°C9 mph, E100%10000m1019hPa43%
20-Jun-2024 03:00Broken Clouds26°C9 mph, E82%10000m1020hPa61%
20-Jun-2024 06:00Scattered Clouds23°C9 mph, E42%10000m1021hPa65%
20-Jun-2024 09:00Clear Sky21°C7 mph, E0%10000m1021hPa75%
20-Jun-2024 12:00Clear Sky22°C9 mph, NE0%10000m1022hPa73%
20-Jun-2024 15:00Clear Sky28°C13 mph, E0%10000m1022hPa47%
20-Jun-2024 18:00Clear Sky31°C13 mph, E9%10000m1020hPa40%
20-Jun-2024 21:00Broken Clouds30°C13 mph, NE84%10000m1019hPa47%
21-Jun-2024 00:00Broken Clouds28°C13 mph, NE65%10000m1019hPa57%
21-Jun-2024 03:00Scattered Clouds26°C16 mph, NE48%10000m1019hPa72%
21-Jun-2024 06:00Broken Clouds25°C16 mph, E53%10000m1018hPa81%